createdAt,value
2022-12-04T00:01:33.360Z,58.25
2022-12-04T00:04:38.525Z,60.50
2022-12-04T00:08:51.910Z,60.75
2022-12-04T00:11:54.644Z,56.25
2022-12-04T00:18:27.625Z,55.50
2022-12-04T00:21:42.760Z,47.25
2022-12-04T00:24:48.359Z,56.50
2022-12-04T00:28:10.483Z,58.75
2022-12-04T00:32:01.429Z,54.75
2022-12-04T00:35:29.227Z,53.00
2022-12-04T00:38:49.324Z,53.50
2022-12-04T00:42:26.050Z,55.25
2022-12-04T00:45:34.948Z,56.00
2022-12-04T00:48:46.437Z,54.75
2022-12-04T00:52:05.610Z,57.50
2022-12-04T00:55:18.002Z,54.00
2022-12-04T00:58:28.799Z,52.75
2022-12-04T01:01:40.847Z,57.75
2022-12-04T01:04:47.436Z,54.00
2022-12-04T01:08:03.437Z,55.75
2022-12-04T01:11:14.464Z,47.50
2022-12-04T01:14:37.305Z,51.50
2022-12-04T01:17:49.629Z,54.00
2022-12-04T01:21:02.650Z,51.75
2022-12-04T01:24:11.070Z,54.75
2022-12-04T01:27:18.289Z,54.50
2022-12-04T01:30:23.481Z,50.00
2022-12-04T01:33:26.336Z,57.75
2022-12-04T01:36:29.263Z,52.00
2022-12-04T01:39:32.080Z,49.00
2022-12-04T01:42:34.450Z,52.50
2022-12-04T01:45:40.198Z,54.50
2022-12-04T01:49:00.938Z,55.75
2022-12-04T01:52:14.759Z,49.75
2022-12-04T01:55:17.460Z,57.00
2022-12-04T01:58:25.998Z,56.00
2022-12-04T02:01:31.999Z,51.75
2022-12-04T02:04:35.585Z,51.75
2022-12-04T02:07:39.733Z,51.25
2022-12-04T02:10:55.432Z,49.75
2022-12-04T02:14:19.598Z,51.75
2022-12-04T02:17:33.441Z,46.25
2022-12-04T02:20:59.412Z,51.00
2022-12-04T02:24:32.550Z,53.50
2022-12-04T02:27:40.807Z,51.50
2022-12-04T02:30:44.710Z,48.25
2022-12-04T02:34:22.627Z,49.00
2022-12-04T02:37:38.366Z,50.50
2022-12-04T02:40:55.326Z,50.25
2022-12-04T02:44:03.864Z,53.25
2022-12-04T02:47:11.983Z,48.75
2022-12-04T02:50:18.222Z,48.75
2022-12-04T02:53:25.894Z,49.25
2022-12-04T02:56:33.978Z,51.50
2022-12-04T02:59:39.575Z,48.50
2022-12-04T03:02:51.981Z,46.50
2022-12-04T03:06:01.720Z,47.00
2022-12-04T03:09:25.143Z,50.75
2022-12-04T03:13:05.699Z,50.00
2022-12-04T03:16:17.175Z,49.00
2022-12-04T03:19:26.423Z,45.00
2022-12-04T03:22:37.495Z,47.50
2022-12-04T03:26:01.742Z,46.50
2022-12-04T03:29:16.452Z,50.00
2022-12-04T03:32:24.922Z,50.00
2022-12-04T03:35:47.560Z,48.50
2022-12-04T03:39:06.249Z,45.25
2022-12-04T03:42:18.677Z,44.75
2022-12-04T03:45:44.940Z,49.50
2022-12-04T03:48:53.230Z,45.25
2022-12-04T03:51:59.978Z,45.00
2022-12-04T03:55:09.466Z,47.00
2022-12-04T03:58:16.292Z,47.50
2022-12-04T04:01:21.282Z,46.75
2022-12-04T04:04:31.654Z,48.25
2022-12-04T04:07:40.238Z,48.75
2022-12-04T04:10:42.648Z,46.50
2022-12-04T04:14:17.922Z,46.75
2022-12-04T04:17:43.411Z,46.50
2022-12-04T04:21:08.611Z,47.00
2022-12-04T04:24:27.266Z,48.25
2022-12-04T04:27:30.265Z,48.00
2022-12-04T04:30:33.304Z,41.00
2022-12-04T04:34:05.035Z,47.00
2022-12-04T04:37:16.434Z,45.00
2022-12-04T04:40:27.666Z,41.25
2022-12-04T04:43:36.357Z,38.25
2022-12-04T04:46:42.756Z,34.25
2022-12-04T04:49:46.786Z,39.50
2022-12-04T04:52:53.471Z,44.50
2022-12-04T04:55:56.713Z,33.25
2022-12-04T04:58:59.382Z,41.75
2022-12-04T05:02:01.873Z,38.00
2022-12-04T05:05:04.990Z,39.25
2022-12-04T05:08:07.552Z,40.00
2022-12-04T05:11:14.686Z,48.50
2022-12-04T05:14:16.998Z,45.75
2022-12-04T05:17:19.611Z,33.00
2022-12-04T05:20:22.006Z,40.00
2022-12-04T05:23:25.461Z,42.25
2022-12-04T05:26:27.841Z,45.00
2022-12-04T05:29:35.583Z,37.00
2022-12-04T05:32:38.459Z,42.50
2022-12-04T05:35:41.104Z,44.25
2022-12-04T05:38:43.689Z,44.75
2022-12-04T05:41:47.290Z,46.50
2022-12-04T05:44:50.378Z,38.50
2022-12-04T05:47:52.990Z,43.50
2022-12-04T05:50:55.348Z,47.25
2022-12-04T05:53:57.950Z,42.25
2022-12-04T05:57:00.447Z,42.00
2022-12-04T06:00:03.856Z,41.50
2022-12-04T06:03:13.492Z,39.50
2022-12-04T06:06:21.854Z,43.00
2022-12-04T06:09:24.672Z,42.50
2022-12-04T06:12:27.422Z,41.50
2022-12-04T06:15:29.722Z,45.25
2022-12-04T06:18:32.318Z,43.75
2022-12-04T06:21:37.970Z,48.75
2022-12-04T06:24:40.706Z,31.00
2022-12-04T06:27:44.555Z,41.25
2022-12-04T06:30:47.212Z,44.00
2022-12-04T06:33:49.710Z,36.25
2022-12-04T06:36:52.346Z,37.25
2022-12-04T06:39:55.016Z,42.25
2022-12-04T06:42:57.976Z,25.75
2022-12-04T06:46:12.052Z,36.75
2022-12-04T06:49:14.895Z,35.75
2022-12-04T06:52:17.418Z,41.75
2022-12-04T06:55:20.039Z,43.50
2022-12-04T06:58:33.623Z,37.25
2022-12-04T07:01:36.811Z,41.50
2022-12-04T07:04:40.186Z,31.75
2022-12-04T07:07:42.971Z,45.00
2022-12-04T07:10:45.323Z,41.00
2022-12-04T07:13:48.610Z,39.75
2022-12-04T07:16:50.984Z,43.00
2022-12-04T07:19:54.084Z,44.50
2022-12-04T07:22:58.037Z,46.75
2022-12-04T07:26:12.172Z,48.00
2022-12-04T07:29:14.635Z,42.50
2022-12-04T07:32:17.420Z,42.50
2022-12-04T07:35:19.888Z,42.00
2022-12-04T07:38:22.540Z,39.25
2022-12-04T07:41:25.182Z,47.50
2022-12-04T07:44:27.907Z,44.50
2022-12-04T07:47:30.329Z,41.50
2022-12-04T07:50:33.028Z,47.00
2022-12-04T07:53:36.147Z,45.50
2022-12-04T07:56:38.794Z,40.00
2022-12-04T07:59:41.178Z,46.00
2022-12-04T08:02:43.907Z,45.00
2022-12-04T08:05:46.301Z,40.50
2022-12-04T08:08:49.402Z,36.67
2022-12-04T08:11:51.839Z,44.33
2022-12-04T08:14:54.601Z,48.00
2022-12-04T08:17:56.960Z,41.75
2022-12-04T08:21:07.494Z,39.75
2022-12-04T08:24:10.101Z,41.67
2022-12-04T08:27:12.841Z,47.25
2022-12-04T08:30:15.466Z,40.75
2022-12-04T08:33:18.245Z,43.75
2022-12-04T08:36:21.645Z,43.25
2022-12-04T08:39:24.850Z,41.25
2022-12-04T08:42:27.260Z,38.50
2022-12-04T08:45:34.023Z,40.75
2022-12-04T08:48:37.398Z,41.75
2022-12-04T08:51:40.175Z,36.75
2022-12-04T08:54:42.586Z,34.50
2022-12-04T08:57:47.260Z,44.50
2022-12-04T09:00:52.241Z,39.25
2022-12-04T09:03:59.071Z,38.00
2022-12-04T09:07:02.170Z,41.00
2022-12-04T09:10:06.062Z,38.50
2022-12-04T09:13:09.674Z,43.75
2022-12-04T09:16:16.447Z,39.75
2022-12-04T09:19:20.203Z,45.50
2022-12-04T09:22:23.838Z,44.50
2022-12-04T09:25:27.005Z,43.00
2022-12-04T09:28:31.396Z,36.25
2022-12-04T09:31:35.123Z,44.75
2022-12-04T09:34:38.763Z,45.00
2022-12-04T09:37:42.718Z,44.50
2022-12-04T09:40:55.022Z,42.75
2022-12-04T09:44:06.128Z,36.75
2022-12-04T09:47:31.404Z,44.50
2022-12-04T09:50:43.526Z,47.00
2022-12-04T09:53:57.216Z,39.33
2022-12-04T09:57:04.331Z,46.50
2022-12-04T10:00:13.133Z,45.50
2022-12-04T10:03:21.510Z,45.00
2022-12-04T10:06:28.354Z,45.00
2022-12-04T10:09:43.601Z,48.50
2022-12-04T10:13:26.127Z,44.00
2022-12-04T10:16:39.539Z,45.00
2022-12-04T10:20:12.109Z,36.25
2022-12-04T10:23:17.863Z,38.00
2022-12-04T10:26:28.538Z,44.00
2022-12-04T10:29:34.406Z,40.00
2022-12-04T10:32:37.987Z,44.50
2022-12-04T10:35:43.124Z,42.25
2022-12-04T10:38:50.326Z,45.50
2022-12-04T10:42:02.631Z,42.00
2022-12-04T10:45:08.471Z,44.50
2022-12-04T10:48:22.394Z,47.50
2022-12-04T10:51:26.048Z,43.33
2022-12-04T10:54:36.879Z,42.33
2022-12-04T10:57:45.721Z,42.67
2022-12-04T11:01:06.840Z,47.00
2022-12-04T11:04:23.975Z,44.75
2022-12-04T11:07:46.277Z,38.67
2022-12-04T11:10:59.806Z,45.75
2022-12-04T11:14:36.289Z,45.00
2022-12-04T11:17:39.796Z,42.50
2022-12-04T11:20:50.018Z,38.50
2022-12-04T11:23:53.477Z,47.00
2022-12-04T11:26:57.708Z,47.00
2022-12-04T11:33:39.546Z,45.00
2022-12-04T11:36:43.516Z,39.75
2022-12-04T11:39:51.105Z,45.00
2022-12-04T11:43:01.786Z,39.75
2022-12-04T11:46:20.671Z,47.00
2022-12-04T11:49:26.772Z,45.00
2022-12-04T11:53:04.606Z,46.75
2022-12-04T11:56:53.466Z,45.75
2022-12-04T11:59:56.966Z,45.00
2022-12-04T12:03:11.411Z,45.00
2022-12-04T12:06:31.520Z,42.00
2022-12-04T12:10:00.064Z,45.00
2022-12-04T12:13:30.150Z,47.75
2022-12-04T12:17:22.426Z,45.25
2022-12-04T12:25:12.878Z,41.75
2022-12-04T12:28:26.687Z,48.25
2022-12-04T12:31:55.891Z,38.33
2022-12-04T12:35:00.282Z,48.00
2022-12-04T12:38:07.899Z,37.67
2022-12-04T12:41:16.656Z,40.00
2022-12-04T12:44:24.240Z,44.50
2022-12-04T12:47:33.740Z,41.25
2022-12-04T12:50:45.509Z,44.50
2022-12-04T12:53:51.842Z,45.50
2022-12-04T12:57:07.324Z,40.00
2022-12-04T13:00:23.615Z,46.50
2022-12-04T13:03:53.715Z,40.00
2022-12-04T13:07:53.490Z,45.00
2022-12-04T13:11:31.644Z,46.75
2022-12-04T13:14:43.532Z,39.67
2022-12-04T13:17:56.629Z,48.33
2022-12-04T13:21:03.897Z,45.00
2022-12-04T13:24:31.149Z,41.67
2022-12-04T13:27:58.409Z,43.00
2022-12-04T13:31:13.943Z,49.25
2022-12-04T13:34:25.328Z,45.00
2022-12-04T13:37:46.659Z,49.00
2022-12-04T13:40:58.591Z,43.00
2022-12-04T13:44:06.874Z,42.00
2022-12-04T13:47:44.364Z,45.25
2022-12-04T13:50:48.091Z,41.67
2022-12-04T13:54:03.616Z,48.00
2022-12-04T13:57:15.452Z,45.75
2022-12-04T14:00:27.588Z,46.50
2022-12-04T14:03:36.176Z,47.50
2022-12-04T14:06:42.367Z,39.25
2022-12-04T14:09:50.199Z,43.67
2022-12-04T14:13:05.557Z,45.50
2022-12-04T14:16:22.942Z,46.50
2022-12-04T14:19:38.924Z,42.67
2022-12-04T14:22:47.016Z,45.67
2022-12-04T14:25:51.589Z,38.33
2022-12-04T14:29:06.853Z,34.67
2022-12-04T14:32:15.790Z,38.33
2022-12-04T14:35:27.622Z,34.67
2022-12-04T14:38:43.040Z,45.00
2022-12-04T14:41:46.975Z,45.33
2022-12-04T14:44:55.339Z,43.33
2022-12-04T14:48:27.405Z,41.33
2022-12-04T14:51:42.076Z,39.33
2022-12-04T14:55:07.915Z,40.00
2022-12-04T14:58:31.729Z,42.33
2022-12-04T15:01:37.908Z,45.00
2022-12-04T15:04:46.617Z,43.67
2022-12-04T15:07:55.392Z,43.00
2022-12-04T15:11:18.082Z,35.67
2022-12-04T15:14:21.882Z,41.00
2022-12-04T15:17:24.651Z,41.00
2022-12-04T15:20:39.200Z,37.00
2022-12-04T15:23:45.134Z,41.33
2022-12-04T15:26:49.728Z,42.00
2022-12-04T15:29:56.625Z,39.33
2022-12-04T15:33:06.485Z,41.75
2022-12-04T15:36:15.658Z,39.00
2022-12-04T15:39:35.564Z,43.50
2022-12-04T15:42:39.310Z,41.33
2022-12-04T15:45:43.489Z,45.00
2022-12-04T15:48:48.089Z,39.33
2022-12-04T15:51:52.014Z,41.33
2022-12-04T15:55:03.220Z,40.67
2022-12-04T15:58:22.778Z,42.00
2022-12-04T16:01:39.630Z,42.50
2022-12-04T16:04:57.041Z,39.67
2022-12-04T16:08:02.705Z,34.67
2022-12-04T16:11:18.764Z,42.25
2022-12-04T16:14:22.124Z,42.25
2022-12-04T16:17:30.556Z,43.00
2022-12-04T16:20:38.476Z,40.50
2022-12-04T16:23:45.462Z,48.25
2022-12-04T16:26:50.923Z,39.00
2022-12-04T16:29:54.695Z,41.50
2022-12-04T16:32:57.892Z,42.00
2022-12-04T16:36:01.845Z,44.25
2022-12-04T16:39:05.465Z,41.00
2022-12-04T16:42:20.085Z,39.33
2022-12-04T16:45:30.043Z,45.00
2022-12-04T16:48:36.944Z,42.33
2022-12-04T16:51:51.662Z,39.50
2022-12-04T16:54:57.527Z,44.50
2022-12-04T16:58:03.020Z,36.33
2022-12-04T17:01:21.084Z,36.67
2022-12-04T17:04:24.460Z,37.00
2022-12-04T17:07:28.011Z,35.75
2022-12-04T17:10:31.222Z,42.25
2022-12-04T17:13:34.582Z,40.50
2022-12-04T17:16:39.229Z,33.75
2022-12-04T17:19:42.321Z,44.00
2022-12-04T17:22:45.377Z,45.50
2022-12-04T17:25:48.958Z,43.25
2022-12-04T17:28:52.254Z,36.50
2022-12-04T17:31:56.392Z,41.50
2022-12-04T17:34:59.753Z,45.50
2022-12-04T17:38:06.155Z,38.00
2022-12-04T17:41:11.280Z,45.00
2022-12-04T17:44:14.644Z,41.25
2022-12-04T17:47:18.479Z,30.75
2022-12-04T17:50:23.104Z,40.50
2022-12-04T17:53:27.006Z,41.00
2022-12-04T17:56:30.848Z,40.50
2022-12-04T17:59:33.701Z,42.50
2022-12-04T18:02:38.251Z,41.50
2022-12-04T18:05:41.330Z,31.67
2022-12-04T18:08:50.423Z,42.00
2022-12-04T18:11:53.801Z,34.00
2022-12-04T18:14:58.151Z,41.50
2022-12-04T18:18:00.987Z,34.50
2022-12-04T18:21:11.462Z,40.00
2022-12-04T18:24:15.496Z,37.50
2022-12-04T18:27:22.133Z,37.50
2022-12-04T18:30:25.448Z,41.50
2022-12-04T18:33:33.442Z,44.50
2022-12-04T18:36:39.060Z,39.50
2022-12-04T18:39:42.249Z,36.00
2022-12-04T18:42:45.473Z,27.00
2022-12-04T18:46:01.353Z,42.00
2022-12-04T18:49:09.885Z,38.50
2022-12-04T18:52:13.382Z,39.50
2022-12-04T18:55:26.705Z,39.00
2022-12-04T18:58:30.764Z,36.75
2022-12-04T19:01:35.148Z,36.50
2022-12-04T19:04:41.220Z,28.00
2022-12-04T19:07:45.705Z,40.50
2022-12-04T19:10:50.987Z,38.50
2022-12-04T19:13:54.822Z,34.25
2022-12-04T19:16:58.320Z,38.50
2022-12-04T19:20:02.375Z,35.00
2022-12-04T19:23:08.226Z,31.75
2022-12-04T19:26:11.775Z,33.75
2022-12-04T19:29:16.184Z,37.00
2022-12-04T19:32:20.813Z,38.75
2022-12-04T19:35:29.699Z,39.25
2022-12-04T19:38:34.010Z,38.50
2022-12-04T19:41:44.360Z,39.00
2022-12-04T19:44:49.054Z,45.00
2022-12-04T19:47:54.326Z,33.25
2022-12-04T19:51:05.694Z,46.75
2022-12-04T19:54:12.864Z,36.67
2022-12-04T19:57:15.937Z,42.00
2022-12-04T20:00:20.581Z,37.50
2022-12-04T20:03:25.043Z,38.25
2022-12-04T20:06:30.225Z,37.00
2022-12-04T20:09:33.661Z,37.25
2022-12-04T20:12:37.713Z,40.75
2022-12-04T20:15:42.917Z,36.75
2022-12-04T20:18:47.500Z,29.50
2022-12-04T20:21:56.131Z,35.67
2022-12-04T20:25:07.745Z,37.67
2022-12-04T20:28:14.665Z,43.00
2022-12-04T20:31:25.493Z,42.50
2022-12-04T20:34:28.980Z,31.00
2022-12-04T20:37:33.155Z,37.67
2022-12-04T20:40:36.491Z,28.67
2022-12-04T20:43:40.344Z,27.33
2022-12-04T20:46:44.674Z,13.33
2022-12-04T20:49:48.215Z,34.00
2022-12-04T20:52:51.888Z,32.33
2022-12-04T20:55:58.191Z,37.25
2022-12-04T20:59:04.655Z,30.67
2022-12-04T21:02:09.003Z,36.00
2022-12-04T21:05:13.105Z,38.00
2022-12-04T21:08:36.729Z,30.67
2022-12-04T21:11:41.907Z,40.00
2022-12-04T21:15:03.164Z,41.75
2022-12-04T21:18:06.103Z,34.67
2022-12-04T21:21:09.264Z,35.67
2022-12-04T21:24:13.073Z,35.50
2022-12-04T21:27:20.799Z,33.00
2022-12-04T21:30:23.751Z,33.50
2022-12-04T21:33:26.429Z,33.75
2022-12-04T21:36:29.146Z,38.00
2022-12-04T21:39:32.079Z,33.00
2022-12-04T21:42:35.634Z,39.33
2022-12-04T21:45:38.486Z,42.25
2022-12-04T21:48:40.830Z,32.67
2022-12-04T21:51:59.627Z,38.00
2022-12-04T21:55:02.273Z,33.25
2022-12-04T21:58:06.536Z,39.33
2022-12-04T22:01:13.520Z,39.00
2022-12-04T22:04:16.417Z,34.67
2022-12-04T22:07:18.824Z,41.50
2022-12-04T22:10:23.249Z,34.00
2022-12-04T22:13:25.623Z,36.25
2022-12-04T22:16:30.662Z,32.50
2022-12-04T22:19:34.283Z,26.25
2022-12-04T22:22:36.951Z,33.33
2022-12-04T22:25:39.389Z,42.00
2022-12-04T22:28:42.952Z,36.25
2022-12-04T22:31:45.412Z,35.75
2022-12-04T22:34:50.613Z,34.00
2022-12-04T22:37:53.433Z,31.50
2022-12-04T22:40:59.581Z,33.33
2022-12-04T22:44:02.003Z,39.50
2022-12-04T22:47:04.959Z,35.00
2022-12-04T22:50:08.128Z,32.00
2022-12-04T22:53:10.844Z,37.00
2022-12-04T22:56:19.014Z,32.33
2022-12-04T22:59:21.749Z,37.00
2022-12-04T23:02:24.170Z,38.67
2022-12-04T23:05:26.961Z,38.50
2022-12-04T23:08:29.856Z,36.50
2022-12-04T23:11:32.741Z,28.50
2022-12-04T23:14:37.072Z,33.50
2022-12-04T23:17:39.784Z,30.67
2022-12-04T23:20:42.137Z,27.67
2022-12-04T23:23:45.934Z,38.50
2022-12-04T23:26:48.297Z,35.33
2022-12-04T23:29:54.127Z,40.67
2022-12-04T23:32:56.565Z,12.67
2022-12-04T23:36:01.734Z,36.00
2022-12-04T23:39:04.283Z,31.67
2022-12-04T23:42:07.058Z,36.25
2022-12-04T23:45:09.812Z,31.00
2022-12-04T23:48:12.640Z,35.25
2022-12-04T23:51:17.716Z,38.00
2022-12-04T23:54:20.524Z,33.75
2022-12-04T23:57:22.903Z,36.00
